sensor_id;sensor_type;location;lat;lon;timestamp;pressure;altitude;pressure_sealevel;temperature;humidity
68994;BME280;56054;50.968;5.816;2023-05-25T00:00:23;101633.00;;;12.42;88.36
68994;BME280;56054;50.968;5.816;2023-05-25T00:03:23;101638.00;;;12.39;89.48
68994;BME280;56054;50.968;5.816;2023-05-25T00:06:24;101636.34;;;12.53;88.55
68994;BME280;56054;50.968;5.816;2023-05-25T00:09:24;101630.72;;;12.47;89.05
68994;BME280;56054;50.968;5.816;2023-05-25T00:12:32;101632.78;;;12.39;88.98
68994;BME280;56054;50.968;5.816;2023-05-25T00:15:32;101630.47;;;12.43;88.57
68994;BME280;56054;50.968;5.816;2023-05-25T00:18:32;101633.69;;;12.39;88.90
68994;BME280;56054;50.968;5.816;2023-05-25T00:21:33;101635.38;;;12.02;91.10
68994;BME280;56054;50.968;5.816;2023-05-25T00:24:41;101631.50;;;12.09;91.64
68994;BME280;56054;50.968;5.816;2023-05-25T00:27:42;101636.50;;;12.06;91.68
68994;BME280;56054;50.968;5.816;2023-05-25T00:30:42;101627.44;;;12.12;91.42
68994;BME280;56054;50.968;5.816;2023-05-25T00:33:42;101624.28;;;12.05;91.44
68994;BME280;56054;50.968;5.816;2023-05-25T00:36:43;101620.66;;;12.03;91.34
68994;BME280;56054;50.968;5.816;2023-05-25T00:39:44;101629.94;;;12.11;92.02
68994;BME280;56054;50.968;5.816;2023-05-25T00:42:44;101631.31;;;12.06;92.10
68994;BME280;56054;50.968;5.816;2023-05-25T00:45:45;101638.78;;;12.01;92.47
68994;BME280;56054;50.968;5.816;2023-05-25T00:48:45;101636.53;;;11.94;92.68
68994;BME280;56054;50.968;5.816;2023-05-25T00:51:46;101633.25;;;11.96;92.34
68994;BME280;56054;50.968;5.816;2023-05-25T00:54:50;101633.78;;;12.04;92.85
68994;BME280;56054;50.968;5.816;2023-05-25T00:57:56;101623.50;;;11.94;92.38
68994;BME280;56054;50.968;5.816;2023-05-25T01:01:02;101631.19;;;11.92;92.55
68994;BME280;56054;50.968;5.816;2023-05-25T01:04:05;101634.94;;;11.96;92.70
68994;BME280;56054;50.968;5.816;2023-05-25T01:07:08;101637.00;;;11.88;92.47
68994;BME280;56054;50.968;5.816;2023-05-25T01:10:10;101633.34;;;11.74;93.28
68994;BME280;56054;50.968;5.816;2023-05-25T01:13:14;101625.00;;;11.78;93.22
68994;BME280;56054;50.968;5.816;2023-05-25T01:19:32;101630.09;;;11.89;93.08
68994;BME280;56054;50.968;5.816;2023-05-25T01:25:47;101641.28;;;11.64;94.03
68994;BME280;56054;50.968;5.816;2023-05-25T01:28:51;101639.81;;;11.68;93.19
68994;BME280;56054;50.968;5.816;2023-05-25T01:31:52;101647.88;;;11.71;93.38
68994;BME280;56054;50.968;5.816;2023-05-25T01:34:54;101648.97;;;11.51;94.32
68994;BME280;56054;50.968;5.816;2023-05-25T01:37:57;101644.94;;;11.54;94.19
68994;BME280;56054;50.968;5.816;2023-05-25T01:40:58;101651.59;;;11.51;93.95
68994;BME280;56054;50.968;5.816;2023-05-25T01:44:00;101652.63;;;11.29;96.96
68994;BME280;56054;50.968;5.816;2023-05-25T01:47:06;101653.97;;;11.36;96.20
68994;BME280;56054;50.968;5.816;2023-05-25T01:50:22;101643.53;;;11.36;97.01
68994;BME280;56054;50.968;5.816;2023-05-25T01:53:29;101652.97;;;11.34;96.26
68994;BME280;56054;50.968;5.816;2023-05-25T01:56:34;101651.94;;;11.44;96.19
68994;BME280;56054;50.968;5.816;2023-05-25T01:59:35;101661.53;;;11.21;97.32
68994;BME280;56054;50.968;5.816;2023-05-25T02:02:41;101656.56;;;11.36;96.97
68994;BME280;56054;50.968;5.816;2023-05-25T02:05:43;101650.81;;;11.40;96.69
68994;BME280;56054;50.968;5.816;2023-05-25T02:08:44;101658.25;;;11.24;97.28
68994;BME280;56054;50.968;5.816;2023-05-25T02:11:45;101646.97;;;11.47;96.83
68994;BME280;56054;50.968;5.816;2023-05-25T02:14:48;101641.97;;;11.38;97.19
68994;BME280;56054;50.968;5.816;2023-05-25T02:17:48;101651.81;;;11.30;96.85
68994;BME280;56054;50.968;5.816;2023-05-25T02:20:49;101647.84;;;11.24;96.71
68994;BME280;56054;50.968;5.816;2023-05-25T02:23:59;101637.44;;;11.24;97.72
68994;BME280;56054;50.968;5.816;2023-05-25T02:26:59;101651.91;;;11.20;98.10
68994;BME280;56054;50.968;5.816;2023-05-25T02:30:00;101649.66;;;11.25;97.24
68994;BME280;56054;50.968;5.816;2023-05-25T02:33:02;101649.66;;;11.25;98.04
68994;BME280;56054;50.968;5.816;2023-05-25T02:36:03;101642.03;;;11.04;98.79
68994;BME280;56054;50.968;5.816;2023-05-25T02:39:03;101647.91;;;11.02;98.31
68994;BME280;56054;50.968;5.816;2023-05-25T02:42:04;101649.44;;;11.10;98.95
68994;BME280;56054;50.968;5.816;2023-05-25T02:45:14;101654.38;;;10.95;99.84
68994;BME280;56054;50.968;5.816;2023-05-25T02:48:14;101657.06;;;10.97;99.59
68994;BME280;56054;50.968;5.816;2023-05-25T02:51:15;101656.50;;;10.89;100.00
68994;BME280;56054;50.968;5.816;2023-05-25T02:54:15;101669.25;;;10.86;100.00
68994;BME280;56054;50.968;5.816;2023-05-25T02:57:16;101671.78;;;10.96;100.00
68994;BME280;56054;50.968;5.816;2023-05-25T03:00:17;101668.81;;;10.91;100.00
68994;BME280;56054;50.968;5.816;2023-05-25T03:03:17;101666.47;;;10.61;100.00
68994;BME280;56054;50.968;5.816;2023-05-25T03:06:18;101667.19;;;10.82;100.00
68994;BME280;56054;50.968;5.816;2023-05-25T03:09:20;101674.47;;;10.86;100.00
68994;BME280;56054;50.968;5.816;2023-05-25T03:12:23;101677.88;;;10.63;100.00
68994;BME280;56054;50.968;5.816;2023-05-25T03:15:24;101673.91;;;10.56;100.00
68994;BME280;56054;50.968;5.816;2023-05-25T03:18:24;101682.69;;;10.58;100.00
68994;BME280;56054;50.968;5.816;2023-05-25T03:21:25;101681.41;;;10.75;100.00
68994;BME280;56054;50.968;5.816;2023-05-25T03:24:25;101685.25;;;10.68;100.00
68994;BME280;56054;50.968;5.816;2023-05-25T03:27:28;101682.00;;;10.49;100.00
68994;BME280;56054;50.968;5.816;2023-05-25T03:30:29;101685.06;;;10.33;100.00
68994;BME280;56054;50.968;5.816;2023-05-25T03:33:29;101685.50;;;10.49;100.00
68994;BME280;56054;50.968;5.816;2023-05-25T03:36:30;101691.66;;;10.62;100.00
68994;BME280;56054;50.968;5.816;2023-05-25T03:39:30;101692.34;;;10.59;100.00
68994;BME280;56054;50.968;5.816;2023-05-25T03:42:31;101685.00;;;10.65;100.00
68994;BME280;56054;50.968;5.816;2023-05-25T03:45:31;101694.72;;;10.68;100.00
68994;BME280;56054;50.968;5.816;2023-05-25T03:48:32;101694.69;;;10.56;100.00
68994;BME280;56054;50.968;5.816;2023-05-25T03:51:32;101702.41;;;10.66;100.00
68994;BME280;56054;50.968;5.816;2023-05-25T03:54:33;101704.78;;;10.63;100.00
68994;BME280;56054;50.968;5.816;2023-05-25T03:57:34;101697.69;;;10.50;100.00
68994;BME280;56054;50.968;5.816;2023-05-25T04:00:37;101702.78;;;10.49;100.00
68994;BME280;56054;50.968;5.816;2023-05-25T04:03:38;101698.94;;;10.44;100.00
68994;BME280;56054;50.968;5.816;2023-05-25T04:06:38;101708.59;;;10.35;100.00
68994;BME280;56054;50.968;5.816;2023-05-25T04:09:40;101712.16;;;10.47;100.00
68994;BME280;56054;50.968;5.816;2023-05-25T04:12:41;101712.94;;;10.46;100.00
68994;BME280;56054;50.968;5.816;2023-05-25T04:15:42;101713.19;;;10.49;100.00
68994;BME280;56054;50.968;5.816;2023-05-25T04:18:47;101719.00;;;10.57;100.00
68994;BME280;56054;50.968;5.816;2023-05-25T04:21:49;101726.91;;;10.26;100.00
68994;BME280;56054;50.968;5.816;2023-05-25T04:24:49;101727.84;;;10.16;100.00
68994;BME280;56054;50.968;5.816;2023-05-25T04:27:50;101731.72;;;10.21;100.00
68994;BME280;56054;50.968;5.816;2023-05-25T04:31:02;101728.50;;;10.14;100.00
68994;BME280;56054;50.968;5.816;2023-05-25T04:34:17;101733.28;;;10.30;100.00
68994;BME280;56054;50.968;5.816;2023-05-25T04:37:32;101734.44;;;10.23;100.00
68994;BME280;56054;50.968;5.816;2023-05-25T04:40:33;101731.91;;;10.13;100.00
68994;BME280;56054;50.968;5.816;2023-05-25T04:43:34;101735.53;;;10.15;100.00
68994;BME280;56054;50.968;5.816;2023-05-25T04:46:36;101729.84;;;10.41;100.00
68994;BME280;56054;50.968;5.816;2023-05-25T04:49:37;101730.13;;;10.34;100.00
68994;BME280;56054;50.968;5.816;2023-05-25T04:52:37;101745.97;;;10.26;100.00
68994;BME280;56054;50.968;5.816;2023-05-25T04:55:39;101742.81;;;10.51;100.00
68994;BME280;56054;50.968;5.816;2023-05-25T04:58:39;101745.50;;;10.53;100.00
68994;BME280;56054;50.968;5.816;2023-05-25T05:01:40;101745.06;;;10.58;100.00
68994;BME280;56054;50.968;5.816;2023-05-25T05:04:41;101753.81;;;10.59;100.00
68994;BME280;56054;50.968;5.816;2023-05-25T05:07:42;101749.94;;;10.76;100.00
68994;BME280;56054;50.968;5.816;2023-05-25T05:10:43;101746.91;;;10.59;100.00
68994;BME280;56054;50.968;5.816;2023-05-25T05:13:44;101756.94;;;10.77;100.00
68994;BME280;56054;50.968;5.816;2023-05-25T05:20:21;101763.47;;;10.71;100.00
68994;BME280;56054;50.968;5.816;2023-05-25T05:23:21;101760.19;;;10.96;100.00
68994;BME280;56054;50.968;5.816;2023-05-25T05:26:24;101764.81;;;11.22;100.00
68994;BME280;56054;50.968;5.816;2023-05-25T05:29:27;101773.66;;;11.36;100.00
68994;BME280;56054;50.968;5.816;2023-05-25T05:32:28;101780.88;;;11.28;100.00
68994;BME280;56054;50.968;5.816;2023-05-25T05:35:39;101784.00;;;11.12;100.00
68994;BME280;56054;50.968;5.816;2023-05-25T05:38:44;101789.44;;;11.49;100.00
68994;BME280;56054;50.968;5.816;2023-05-25T05:41:47;101790.56;;;11.41;100.00
68994;BME280;56054;50.968;5.816;2023-05-25T05:44:47;101791.91;;;11.48;100.00
68994;BME280;56054;50.968;5.816;2023-05-25T05:47:50;101784.13;;;11.60;100.00
68994;BME280;56054;50.968;5.816;2023-05-25T05:50:56;101782.56;;;11.62;100.00
68994;BME280;56054;50.968;5.816;2023-05-25T05:53:58;101787.66;;;11.72;100.00
68994;BME280;56054;50.968;5.816;2023-05-25T05:56:58;101791.16;;;11.72;100.00
68994;BME280;56054;50.968;5.816;2023-05-25T05:59:59;101800.03;;;11.86;100.00
68994;BME280;56054;50.968;5.816;2023-05-25T06:02:59;101798.25;;;11.97;100.00
68994;BME280;56054;50.968;5.816;2023-05-25T06:06:03;101811.88;;;12.05;100.00
68994;BME280;56054;50.968;5.816;2023-05-25T06:09:16;101806.97;;;12.21;100.00
68994;BME280;56054;50.968;5.816;2023-05-25T06:12:17;101808.22;;;12.26;100.00
68994;BME280;56054;50.968;5.816;2023-05-25T06:15:20;101820.47;;;12.39;100.00
68994;BME280;56054;50.968;5.816;2023-05-25T06:18:23;101811.50;;;12.35;100.00
68994;BME280;56054;50.968;5.816;2023-05-25T06:21:36;101814.97;;;12.59;100.00
68994;BME280;56054;50.968;5.816;2023-05-25T06:25:09;101823.13;;;12.64;100.00
68994;BME280;56054;50.968;5.816;2023-05-25T06:28:20;101811.91;;;12.65;99.84
68994;BME280;56054;50.968;5.816;2023-05-25T06:34:59;101817.34;;;13.05;98.12
68994;BME280;56054;50.968;5.816;2023-05-25T06:38:02;101814.38;;;13.12;97.47
68994;BME280;56054;50.968;5.816;2023-05-25T06:41:02;101816.38;;;13.16;98.17
68994;BME280;56054;50.968;5.816;2023-05-25T06:44:03;101816.19;;;13.13;99.01
68994;BME280;56054;50.968;5.816;2023-05-25T06:47:05;101824.47;;;13.19;98.62
68994;BME280;56054;50.968;5.816;2023-05-25T06:50:06;101822.34;;;13.77;94.73
68994;BME280;56054;50.968;5.816;2023-05-25T06:53:07;101820.06;;;14.08;92.88
68994;BME280;56054;50.968;5.816;2023-05-25T06:56:07;101820.28;;;13.98;92.35
68994;BME280;56054;50.968;5.816;2023-05-25T06:59:08;101833.84;;;14.06;93.61
68994;BME280;56054;50.968;5.816;2023-05-25T07:02:08;101835.44;;;13.90;94.29
68994;BME280;56054;50.968;5.816;2023-05-25T07:05:09;101831.81;;;14.02;93.23
68994;BME280;56054;50.968;5.816;2023-05-25T07:08:11;101837.38;;;14.20;93.65
68994;BME280;56054;50.968;5.816;2023-05-25T07:11:11;101835.31;;;13.89;93.29
68994;BME280;56054;50.968;5.816;2023-05-25T07:14:12;101838.06;;;13.90;93.53
68994;BME280;56054;50.968;5.816;2023-05-25T07:17:15;101827.72;;;14.32;93.07
68994;BME280;56054;50.968;5.816;2023-05-25T07:20:16;101836.69;;;14.49;91.41
68994;BME280;56054;50.968;5.816;2023-05-25T07:23:16;101841.91;;;14.62;91.14
68994;BME280;56054;50.968;5.816;2023-05-25T07:26:17;101844.41;;;14.47;89.80
68994;BME280;56054;50.968;5.816;2023-05-25T07:29:17;101846.63;;;14.81;89.86
68994;BME280;56054;50.968;5.816;2023-05-25T07:32:18;101842.81;;;14.63;89.77
68994;BME280;56054;50.968;5.816;2023-05-25T07:35:18;101851.06;;;14.69;88.94
68994;BME280;56054;50.968;5.816;2023-05-25T07:38:18;101846.63;;;14.81;87.95
68994;BME280;56054;50.968;5.816;2023-05-25T07:41:19;101858.81;;;15.09;87.97
68994;BME280;56054;50.968;5.816;2023-05-25T07:44:19;101857.03;;;15.08;87.35
68994;BME280;56054;50.968;5.816;2023-05-25T07:47:20;101859.72;;;15.09;87.51
68994;BME280;56054;50.968;5.816;2023-05-25T07:50:20;101850.31;;;15.41;87.46
68994;BME280;56054;50.968;5.816;2023-05-25T07:53:21;101859.44;;;15.61;86.07
68994;BME280;56054;50.968;5.816;2023-05-25T07:56:22;101856.41;;;15.55;85.79
68994;BME280;56054;50.968;5.816;2023-05-25T07:59:23;101863.34;;;15.82;83.78
68994;BME280;56054;50.968;5.816;2023-05-25T08:02:23;101861.50;;;16.10;82.52
68994;BME280;56054;50.968;5.816;2023-05-25T08:05:24;101870.78;;;16.19;82.02
68994;BME280;56054;50.968;5.816;2023-05-25T08:08:25;101866.50;;;16.21;80.39
68994;BME280;56054;50.968;5.816;2023-05-25T08:11:26;101869.13;;;16.51;80.67
68994;BME280;56054;50.968;5.816;2023-05-25T08:14:26;101868.16;;;16.19;80.76
68994;BME280;56054;50.968;5.816;2023-05-25T08:17:27;101864.91;;;15.79;81.74
68994;BME280;56054;50.968;5.816;2023-05-25T08:20:27;101862.63;;;15.70;80.99
68994;BME280;56054;50.968;5.816;2023-05-25T08:23:34;101863.13;;;15.93;82.13
68994;BME280;56054;50.968;5.816;2023-05-25T08:26:34;101868.91;;;16.17;80.42
68994;BME280;56054;50.968;5.816;2023-05-25T08:29:35;101868.75;;;16.45;80.41
68994;BME280;56054;50.968;5.816;2023-05-25T08:32:35;101871.75;;;16.97;78.06
68994;BME280;56054;50.968;5.816;2023-05-25T08:35:35;101885.03;;;16.54;75.65
68994;BME280;56054;50.968;5.816;2023-05-25T08:38:36;101884.22;;;16.40;76.30
68994;BME280;56054;50.968;5.816;2023-05-25T08:41:41;101874.19;;;16.48;75.34
68994;BME280;56054;50.968;5.816;2023-05-25T08:44:42;101879.88;;;16.56;76.19
68994;BME280;56054;50.968;5.816;2023-05-25T08:47:44;101873.66;;;16.39;76.52
68994;BME280;56054;50.968;5.816;2023-05-25T08:50:47;101871.97;;;16.10;75.15
68994;BME280;56054;50.968;5.816;2023-05-25T08:53:48;101878.72;;;16.21;74.92
68994;BME280;56054;50.968;5.816;2023-05-25T08:56:53;101878.72;;;16.21;74.28
68994;BME280;56054;50.968;5.816;2023-05-25T09:00:05;101874.09;;;16.46;73.65
68994;BME280;56054;50.968;5.816;2023-05-25T09:03:13;101861.81;;;16.77;72.74
68994;BME280;56054;50.968;5.816;2023-05-25T09:06:16;101863.88;;;17.46;71.20
68994;BME280;56054;50.968;5.816;2023-05-25T09:09:16;101864.72;;;17.29;70.03
68994;BME280;56054;50.968;5.816;2023-05-25T09:12:17;101865.69;;;17.15;70.16
68994;BME280;56054;50.968;5.816;2023-05-25T09:15:18;101863.72;;;17.10;71.05
68994;BME280;56054;50.968;5.816;2023-05-25T09:18:19;101874.03;;;16.76;71.08
68994;BME280;56054;50.968;5.816;2023-05-25T09:21:20;101857.38;;;16.90;71.03
68994;BME280;56054;50.968;5.816;2023-05-25T09:24:20;101875.75;;;16.90;70.16
68994;BME280;56054;50.968;5.816;2023-05-25T09:27:22;101876.28;;;16.54;70.81
68994;BME280;56054;50.968;5.816;2023-05-25T09:30:23;101865.25;;;16.76;69.54
68994;BME280;56054;50.968;5.816;2023-05-25T09:33:25;101874.53;;;17.33;68.54
68994;BME280;56054;50.968;5.816;2023-05-25T09:36:25;101861.91;;;17.59;66.17
68994;BME280;56054;50.968;5.816;2023-05-25T09:39:26;101864.63;;;18.11;65.78
68994;BME280;56054;50.968;5.816;2023-05-25T09:42:27;101869.94;;;17.62;66.03
68994;BME280;56054;50.968;5.816;2023-05-25T09:45:27;101868.16;;;17.61;66.86
68994;BME280;56054;50.968;5.816;2023-05-25T09:48:28;101868.50;;;17.34;69.15
68994;BME280;56054;50.968;5.816;2023-05-25T09:51:28;101862.25;;;17.48;68.21
68994;BME280;56054;50.968;5.816;2023-05-25T09:54:29;101873.41;;;17.28;68.92
68994;BME280;56054;50.968;5.816;2023-05-25T09:57:30;101876.94;;;17.12;68.65
68994;BME280;56054;50.968;5.816;2023-05-25T10:00:30;101875.47;;;17.17;69.17
68994;BME280;56054;50.968;5.816;2023-05-25T10:03:31;101877.03;;;17.30;68.66
68994;BME280;56054;50.968;5.816;2023-05-25T10:06:32;101881.34;;;17.95;67.37
68994;BME280;56054;50.968;5.816;2023-05-25T10:09:40;101867.50;;;17.81;64.45
68994;BME280;56054;50.968;5.816;2023-05-25T10:12:43;101881.53;;;18.16;65.02
68994;BME280;56054;50.968;5.816;2023-05-25T10:15:44;101882.88;;;18.08;65.25
68994;BME280;56054;50.968;5.816;2023-05-25T10:18:50;101874.84;;;17.55;64.79
68994;BME280;56054;50.968;5.816;2023-05-25T10:22:15;101874.63;;;17.84;63.69
68994;BME280;56054;50.968;5.816;2023-05-25T10:28:38;101881.63;;;17.83;64.39
68994;BME280;56054;50.968;5.816;2023-05-25T10:31:42;101884.00;;;17.95;63.50
68994;BME280;56054;50.968;5.816;2023-05-25T10:34:43;101874.31;;;17.61;64.15
68994;BME280;56054;50.968;5.816;2023-05-25T10:37:43;101879.97;;;17.85;64.45
68994;BME280;56054;50.968;5.816;2023-05-25T10:40:45;101881.13;;;18.08;62.91
68994;BME280;56054;50.968;5.816;2023-05-25T10:43:46;101877.47;;;18.40;62.88
68994;BME280;56054;50.968;5.816;2023-05-25T10:46:47;101878.31;;;17.87;63.97
68994;BME280;56054;50.968;5.816;2023-05-25T10:49:58;101875.50;;;18.01;62.90
68994;BME280;56054;50.968;5.816;2023-05-25T10:53:05;101885.03;;;17.99;61.84
68994;BME280;56054;50.968;5.816;2023-05-25T10:56:07;101885.75;;;18.12;61.18
68994;BME280;56054;50.968;5.816;2023-05-25T10:59:11;101883.06;;;18.47;62.36
68994;BME280;56054;50.968;5.816;2023-05-25T11:02:13;101885.81;;;18.68;60.43
68994;BME280;56054;50.968;5.816;2023-05-25T11:08:53;101877.00;;;17.95;61.52
68994;BME280;56054;50.968;5.816;2023-05-25T11:22:29;101869.75;;;18.26;62.12
68994;BME280;56054;50.968;5.816;2023-05-25T11:25:37;101869.41;;;18.02;62.75
68994;BME280;56054;50.968;5.816;2023-05-25T11:28:45;101878.25;;;17.86;63.53
68994;BME280;56054;50.968;5.816;2023-05-25T11:31:52;101876.06;;;18.47;62.27
68994;BME280;56054;50.968;5.816;2023-05-25T11:34:55;101861.59;;;18.21;62.99
68994;BME280;56054;50.968;5.816;2023-05-25T11:37:56;101859.06;;;18.23;61.50
68994;BME280;56054;50.968;5.816;2023-05-25T11:40:57;101862.28;;;18.53;60.91
68994;BME280;56054;50.968;5.816;2023-05-25T11:44:04;101866.75;;;18.54;59.88
68994;BME280;56054;50.968;5.816;2023-05-25T11:47:08;101869.50;;;18.21;61.23
68994;BME280;56054;50.968;5.816;2023-05-25T11:50:15;101864.50;;;18.44;61.63
68994;BME280;56054;50.968;5.816;2023-05-25T11:53:16;101867.88;;;18.59;61.95
68994;BME280;56054;50.968;5.816;2023-05-25T11:56:18;101856.00;;;17.97;63.37
68994;BME280;56054;50.968;5.816;2023-05-25T11:59:19;101862.16;;;17.63;64.30
68994;BME280;56054;50.968;5.816;2023-05-25T12:02:36;101864.50;;;17.91;64.04
68994;BME280;56054;50.968;5.816;2023-05-25T12:05:38;101865.69;;;18.32;63.78
68994;BME280;56054;50.968;5.816;2023-05-25T12:08:45;101849.56;;;17.90;62.92
68994;BME280;56054;50.968;5.816;2023-05-25T12:11:46;101849.81;;;18.13;63.49
68994;BME280;56054;50.968;5.816;2023-05-25T12:14:49;101854.50;;;18.36;61.46
68994;BME280;56054;50.968;5.816;2023-05-25T12:17:51;101855.38;;;18.91;59.47
68994;BME280;56054;50.968;5.816;2023-05-25T12:20:52;101852.34;;;19.01;59.68
68994;BME280;56054;50.968;5.816;2023-05-25T12:23:53;101859.31;;;18.27;60.13
68994;BME280;56054;50.968;5.816;2023-05-25T12:26:53;101849.81;;;18.13;60.35
68994;BME280;56054;50.968;5.816;2023-05-25T12:29:57;101848.16;;;18.15;60.49
68994;BME280;56054;50.968;5.816;2023-05-25T12:33:03;101851.13;;;18.94;59.14
68994;BME280;56054;50.968;5.816;2023-05-25T12:36:04;101851.53;;;18.66;60.05
68994;BME280;56054;50.968;5.816;2023-05-25T12:39:05;101850.03;;;18.35;61.30
68994;BME280;56054;50.968;5.816;2023-05-25T12:42:14;101856.56;;;17.90;62.95
68994;BME280;56054;50.968;5.816;2023-05-25T12:45:15;101855.38;;;18.91;60.83
68994;BME280;56054;50.968;5.816;2023-05-25T12:48:27;101849.56;;;19.56;58.38
68994;BME280;56054;50.968;5.816;2023-05-25T12:51:38;101845.13;;;19.36;57.78
68994;BME280;56054;50.968;5.816;2023-05-25T12:54:42;101840.84;;;19.18;57.36
68994;BME280;56054;50.968;5.816;2023-05-25T13:00:59;101846.59;;;19.49;56.71
68994;BME280;56054;50.968;5.816;2023-05-25T13:04:00;101844.91;;;19.51;56.64
68994;BME280;56054;50.968;5.816;2023-05-25T13:07:13;101849.09;;;19.45;58.20
68994;BME280;56054;50.968;5.816;2023-05-25T13:10:14;101841.53;;;18.95;59.47
68994;BME280;56054;50.968;5.816;2023-05-25T13:13:15;101844.88;;;19.49;59.27
68994;BME280;56054;50.968;5.816;2023-05-25T13:22:48;101823.66;;;19.07;58.49
68994;BME280;56054;50.968;5.816;2023-05-25T13:25:49;101838.13;;;18.97;60.09
68994;BME280;56054;50.968;5.816;2023-05-25T13:28:50;101837.00;;;19.51;59.51
68994;BME280;56054;50.968;5.816;2023-05-25T13:31:50;101842.72;;;19.40;59.86
68994;BME280;56054;50.968;5.816;2023-05-25T13:34:51;101834.25;;;19.48;59.17
68994;BME280;56054;50.968;5.816;2023-05-25T13:37:51;101831.91;;;20.15;57.84
68994;BME280;56054;50.968;5.816;2023-05-25T13:40:51;101831.13;;;19.56;58.86
68994;BME280;56054;50.968;5.816;2023-05-25T13:43:52;101832.72;;;19.33;58.41
68994;BME280;56054;50.968;5.816;2023-05-25T13:46:52;101833.69;;;19.35;58.96
68994;BME280;56054;50.968;5.816;2023-05-25T13:49:53;101832.88;;;19.56;58.74
68994;BME280;56054;50.968;5.816;2023-05-25T13:52:53;101834.22;;;20.07;56.35
68994;BME280;56054;50.968;5.816;2023-05-25T13:55:55;101835.56;;;19.98;55.81
68994;BME280;56054;50.968;5.816;2023-05-25T13:58:55;101831.94;;;19.75;56.10
68994;BME280;56054;50.968;5.816;2023-05-25T14:02:01;101826.94;;;19.81;57.61
68994;BME280;56054;50.968;5.816;2023-05-25T14:05:01;101832.72;;;19.14;58.50
68994;BME280;56054;50.968;5.816;2023-05-25T14:08:02;101840.38;;;18.90;58.73
68994;BME280;56054;50.968;5.816;2023-05-25T14:11:15;101833.91;;;19.01;57.86
68994;BME280;56054;50.968;5.816;2023-05-25T14:14:15;101828.16;;;19.29;56.56
68994;BME280;56054;50.968;5.816;2023-05-25T14:17:16;101833.13;;;19.62;55.49
68994;BME280;56054;50.968;5.816;2023-05-25T14:20:16;101832.47;;;19.27;56.68
68994;BME280;56054;50.968;5.816;2023-05-25T14:23:16;101839.59;;;19.30;57.46
68994;BME280;56054;50.968;5.816;2023-05-25T14:26:18;101833.34;;;19.08;57.07
68994;BME280;56054;50.968;5.816;2023-05-25T14:29:18;101832.25;;;19.22;56.94
68994;BME280;56054;50.968;5.816;2023-05-25T14:32:19;101826.47;;;19.31;56.56
68994;BME280;56054;50.968;5.816;2023-05-25T14:35:27;101823.66;;;19.86;56.59
68994;BME280;56054;50.968;5.816;2023-05-25T14:38:27;101830.16;;;19.15;57.86
68994;BME280;56054;50.968;5.816;2023-05-25T14:41:30;101822.25;;;19.35;56.30
68994;BME280;56054;50.968;5.816;2023-05-25T14:44:40;101826.25;;;19.85;55.00
68994;BME280;56054;50.968;5.816;2023-05-25T14:47:40;101832.09;;;20.20;54.68
68994;BME280;56054;50.968;5.816;2023-05-25T14:50:46;101823.31;;;20.85;52.91
68994;BME280;56054;50.968;5.816;2023-05-25T14:53:47;101825.72;;;20.15;53.74
68994;BME280;56054;50.968;5.816;2023-05-25T14:56:50;101822.16;;;19.53;55.97
68994;BME280;56054;50.968;5.816;2023-05-25T14:59:50;101821.19;;;20.33;55.57
68994;BME280;56054;50.968;5.816;2023-05-25T15:02:53;101829.78;;;20.50;53.27
68994;BME280;56054;50.968;5.816;2023-05-25T15:05:55;101826.03;;;20.22;53.33
68994;BME280;56054;50.968;5.816;2023-05-25T15:08:56;101812.50;;;20.57;51.48
68994;BME280;56054;50.968;5.816;2023-05-25T15:11:57;101817.19;;;20.64;51.37
68994;BME280;56054;50.968;5.816;2023-05-25T15:14:57;101809.84;;;20.79;50.68
68994;BME280;56054;50.968;5.816;2023-05-25T15:17:57;101811.22;;;20.69;51.60
68994;BME280;56054;50.968;5.816;2023-05-25T15:21:00;101801.22;;;20.61;50.09
68994;BME280;56054;50.968;5.816;2023-05-25T15:24:00;101801.72;;;21.21;50.55
68994;BME280;56054;50.968;5.816;2023-05-25T15:27:02;101800.03;;;20.99;49.87
68994;BME280;56054;50.968;5.816;2023-05-25T15:30:03;101806.50;;;20.61;50.29
68994;BME280;56054;50.968;5.816;2023-05-25T15:33:04;101808.97;;;20.14;50.93
68994;BME280;56054;50.968;5.816;2023-05-25T15:36:04;101810.47;;;19.86;51.45
68994;BME280;56054;50.968;5.816;2023-05-25T15:39:06;101808.22;;;19.55;52.71
68994;BME280;56054;50.968;5.816;2023-05-25T15:42:06;101811.72;;;19.35;54.45
68994;BME280;56054;50.968;5.816;2023-05-25T15:45:08;101803.25;;;19.63;54.03
68994;BME280;56054;50.968;5.816;2023-05-25T15:48:09;101792.78;;;19.84;52.67
68994;BME280;56054;50.968;5.816;2023-05-25T15:51:19;101786.31;;;20.63;51.30
68994;BME280;56054;50.968;5.816;2023-05-25T15:54:21;101789.28;;;20.49;51.77
68994;BME280;56054;50.968;5.816;2023-05-25T15:57:22;101787.06;;;20.59;51.87
68994;BME280;56054;50.968;5.816;2023-05-25T16:00:22;101783.06;;;20.47;50.87
68994;BME280;56054;50.968;5.816;2023-05-25T16:03:23;101793.94;;;19.91;50.93
68994;BME280;56054;50.968;5.816;2023-05-25T16:06:31;101794.06;;;20.15;51.40
68994;BME280;56054;50.968;5.816;2023-05-25T16:09:33;101792.16;;;20.33;49.98
68994;BME280;56054;50.968;5.816;2023-05-25T16:12:35;101796.50;;;20.53;49.72
68994;BME280;56054;50.968;5.816;2023-05-25T16:15:38;101798.06;;;20.48;50.26
68994;BME280;56054;50.968;5.816;2023-05-25T16:18:46;101796.06;;;20.43;51.00
68994;BME280;56054;50.968;5.816;2023-05-25T16:21:47;101795.28;;;20.66;50.20
68994;BME280;56054;50.968;5.816;2023-05-25T16:24:47;101794.00;;;20.79;50.75
68994;BME280;56054;50.968;5.816;2023-05-25T16:27:55;101788.03;;;20.61;49.78
68994;BME280;56054;50.968;5.816;2023-05-25T16:30:55;101793.25;;;20.38;50.59